Time;durP1;ratioP1;P1;durP2;ratioP2;P2;SDS_P1;SDS_P2;PMS_P1;PMS_P2;Temp;Humidity;BMP_temperature;BMP_pressure;BME280_temperature;BME280_humidity;BME280_pressure;Samples;Min_cycle;Max_cycle;Signal;HPM_P1;HPM_P2
2021/04/19 00:01:30;;;;;;;67.25;13.65;;;6.70;1.00;;;;;;5131797;27;20249;-68
2021/04/19 00:03:58;;;;;;;69.30;13.80;;;6.70;1.00;;;;;;5132168;27;20672;-68
2021/04/19 00:06:24;;;;;;;71.18;14.32;;;6.70;1.00;;;;;;5132426;27;20289;-68
2021/04/19 00:08:50;;;;;;;68.13;13.77;;;6.60;1.00;;;;;;5132822;27;20222;-68
2021/04/19 00:11:17;;;;;;;69.18;14.48;;;6.60;1.00;;;;;;5134697;27;20291;-68
2021/04/19 00:13:43;;;;;;;72.38;15.65;;;6.60;1.00;;;;;;5136766;27;20309;-68
2021/04/19 00:16:09;;;;;;;68.10;12.65;;;6.60;1.00;;;;;;5136777;27;20239;-68
2021/04/19 00:18:36;;;;;;;70.70;14.60;;;6.60;1.00;;;;;;5136498;27;20298;-68
2021/04/19 00:21:04;;;;;;;71.45;14.38;;;6.60;1.00;;;;;;5136524;27;20203;-68
2021/04/19 00:23:30;;;;;;;66.88;13.25;;;6.50;1.00;;;;;;5136354;27;20710;-68
2021/04/19 00:25:56;;;;;;;69.28;13.02;;;6.50;1.00;;;;;;5136575;27;20353;-68
2021/04/19 00:28:23;;;;;;;69.80;14.20;;;6.50;1.00;;;;;;5136354;27;20206;-68
2021/04/19 00:30:49;;;;;;;68.68;13.23;;;6.50;1.00;;;;;;5136246;27;20310;-68
2021/04/19 00:33:16;;;;;;;70.03;13.63;;;6.40;1.00;;;;;;5128854;27;20229;-68
2021/04/19 00:35:42;;;;;;;70.78;13.23;;;6.40;1.00;;;;;;5124969;27;20211;-68
2021/04/19 00:38:09;;;;;;;71.10;13.65;;;6.40;1.00;;;;;;5136145;27;20305;-68
2021/04/19 00:40:37;;;;;;;69.50;14.55;;;6.30;1.00;;;;;;5136285;27;20231;-68
2021/04/19 00:43:04;;;;;;;68.85;13.88;;;6.30;1.00;;;;;;5135921;27;20218;-68
2021/04/19 00:45:32;;;;;;;69.70;14.05;;;6.30;1.00;;;;;;5136243;27;20292;-68
2021/04/19 00:47:58;;;;;;;68.68;13.45;;;6.20;1.00;;;;;;5135741;27;20260;-68
2021/04/19 00:50:29;;;;;;;69.32;12.63;;;6.20;1.00;;;;;;5135972;27;20310;-68
2021/04/19 00:52:57;;;;;;;68.30;13.77;;;6.20;1.00;;;;;;5136196;27;20689;-68
2021/04/19 00:55:24;;;;;;;67.90;12.90;;;6.10;1.00;;;;;;5135967;27;20743;-68
2021/04/19 00:57:50;;;;;;;67.93;13.40;;;6.10;1.00;;;;;;5135736;27;20245;-68
2021/04/19 01:00:22;;;;;;;71.88;14.43;;;6.10;1.00;;;;;;5135581;27;20306;-68
2021/04/19 01:02:48;;;;;;;67.35;13.07;;;6.00;1.00;;;;;;5135705;27;20302;-68
2021/04/19 01:05:17;;;;;;;69.88;14.95;;;6.00;1.00;;;;;;5121448;27;20683;-68
2021/04/19 01:07:43;;;;;;;69.75;14.43;;;6.00;1.00;;;;;;5131370;27;20680;-68
2021/04/19 01:10:11;;;;;;;71.80;14.43;;;6.00;1.00;;;;;;5135750;27;20311;-68
2021/04/19 01:12:38;;;;;;;70.57;14.65;;;6.00;1.00;;;;;;5135489;27;20617;-68
2021/04/19 01:15:06;;;;;;;69.60;14.65;;;6.00;1.00;;;;;;5135486;27;20202;-68
2021/04/19 01:17:32;;;;;;;71.40;15.25;;;5.90;1.00;;;;;;5135259;27;20580;-68
2021/04/19 01:19:59;;;;;;;70.53;13.90;;;5.90;1.00;;;;;;5135577;27;20673;-68
2021/04/19 01:22:26;;;;;;;70.85;15.32;;;5.90;1.00;;;;;;5135235;27;20703;-68
2021/04/19 01:24:52;;;;;;;72.78;15.50;;;6.00;1.00;;;;;;5135624;27;20202;-68
2021/04/19 01:27:18;;;;;;;71.93;15.30;;;5.90;1.00;;;;;;5135584;27;20242;-68
2021/04/19 01:29:45;;;;;;;67.07;13.85;;;5.90;1.00;;;;;;5135220;27;20309;-68
2021/04/19 01:32:12;;;;;;;69.40;14.68;;;5.90;1.00;;;;;;5134995;27;20697;-68
2021/04/19 01:34:38;;;;;;;71.50;15.05;;;5.90;1.00;;;;;;5135199;27;20294;-68
2021/04/19 01:37:06;;;;;;;71.85;14.32;;;5.90;1.00;;;;;;5115716;27;20298;-68
2021/04/19 01:39:33;;;;;;;68.97;13.30;;;5.90;1.00;;;;;;5135572;27;20310;-68
2021/04/19 01:42:00;;;;;;;71.93;16.33;;;5.90;1.00;;;;;;5134845;27;20222;-68
2021/04/19 01:44:26;;;;;;;70.72;14.75;;;6.00;1.00;;;;;;5134854;27;20620;-68
2021/04/19 01:46:54;;;;;;;67.70;13.15;;;6.00;1.00;;;;;;5135130;27;20238;-68
2021/04/19 01:49:21;;;;;;;67.32;13.30;;;6.00;1.00;;;;;;5134509;27;20231;-68
2021/04/19 01:51:48;;;;;;;69.55;14.13;;;6.00;1.00;;;;;;5134744;27;20207;-68
2021/04/19 01:54:14;;;;;;;71.72;15.63;;;6.00;1.00;;;;;;5134663;27;20202;-68
2021/04/19 01:56:42;;;;;;;69.93;14.88;;;6.00;1.00;;;;;;5134578;27;20213;-68
2021/04/19 01:59:11;;;;;;;73.32;14.77;;;6.10;1.00;;;;;;5134813;27;20455;-68
2021/04/19 02:01:46;;;;;;;71.18;14.20;;;6.10;1.00;;;;;;5134702;27;20223;-68
2021/04/19 02:04:16;;;;;;;71.97;13.27;;;6.10;1.00;;;;;;5134762;27;20214;-68
2021/04/19 02:06:51;;;;;;;67.60;13.38;;;6.10;1.00;;;;;;5133846;27;20234;-68
2021/04/19 02:09:22;;;;;;;68.10;13.35;;;6.10;1.00;;;;;;5134329;27;20301;-67
2021/04/19 02:12:00;;;;;;;70.38;15.25;;;6.10;1.00;;;;;;5134903;27;20656;-67
2021/04/19 02:14:35;;;;;;;71.80;14.15;;;6.10;1.00;;;;;;5134559;27;20199;-67
2021/04/19 02:17:14;;;;;;;69.13;13.02;;;6.10;1.00;;;;;;5134736;27;20293;-68
2021/04/19 02:19:42;;;;;;;68.70;13.73;;;6.10;1.00;;;;;;5134221;27;20288;-68
2021/04/19 02:22:13;;;;;;;71.32;15.10;;;6.10;1.00;;;;;;5134407;27;20222;-68
2021/04/19 02:24:42;;;;;;;73.70;15.18;;;6.10;1.00;;;;;;5134412;27;20210;-68
2021/04/19 02:27:14;;;;;;;71.18;15.65;;;6.10;1.00;;;;;;5134361;27;20289;-68
2021/04/19 02:29:43;;;;;;;71.13;14.73;;;6.10;1.00;;;;;;5133873;27;20311;-68
2021/04/19 02:32:15;;;;;;;71.82;14.80;;;6.10;1.00;;;;;;5133975;27;20195;-68
2021/04/19 02:34:44;;;;;;;72.15;14.52;;;6.10;1.00;;;;;;5133384;27;20737;-68
2021/04/19 02:37:12;;;;;;;71.95;15.27;;;6.10;1.00;;;;;;5132993;27;20773;-68
2021/04/19 02:39:41;;;;;;;68.03;14.02;;;6.10;1.00;;;;;;5133700;27;20227;-68
2021/04/19 02:42:11;;;;;;;74.47;15.13;;;6.00;1.00;;;;;;5134132;27;20265;-68
2021/04/19 02:44:38;;;;;;;67.72;13.60;;;6.00;1.00;;;;;;5133945;27;20207;-68
2021/04/19 02:47:06;;;;;;;72.05;14.93;;;6.00;1.00;;;;;;5134070;27;20573;-68
2021/04/19 02:49:35;;;;;;;70.57;13.95;;;6.00;1.00;;;;;;5133983;27;20388;-68
2021/04/19 02:52:05;;;;;;;70.10;14.43;;;6.00;1.00;;;;;;5133796;27;20219;-67
2021/04/19 02:54:32;;;;;;;71.13;15.63;;;6.00;1.00;;;;;;5134270;27;20593;-67
2021/04/19 02:57:00;;;;;;;70.72;14.95;;;6.00;1.00;;;;;;5133511;27;20206;-67
2021/04/19 02:59:30;;;;;;;70.40;14.02;;;6.00;1.00;;;;;;5134133;27;20336;-68
2021/04/19 03:02:00;;;;;;;71.80;14.20;;;6.00;1.00;;;;;;5133743;27;20309;-69
2021/04/19 03:04:31;;;;;;;70.00;14.05;;;6.10;1.00;;;;;;5133789;27;20566;-68
2021/04/19 03:07:00;;;;;;;67.88;13.40;;;6.00;1.00;;;;;;5133485;27;20213;-68
2021/04/19 03:09:27;;;;;;;70.85;15.43;;;6.00;1.00;;;;;;5131905;27;20290;-68
2021/04/19 03:11:58;;;;;;;72.38;14.50;;;6.00;1.00;;;;;;5133322;27;20237;-68
2021/04/19 03:14:29;;;;;;;70.50;15.07;;;6.00;1.00;;;;;;5133621;27;20206;-68
2021/04/19 03:17:01;;;;;;;70.88;13.60;;;6.00;1.00;;;;;;5133679;27;20347;-68
2021/04/19 03:19:31;;;;;;;74.45;16.33;;;6.00;1.00;;;;;;5133430;27;20601;-67
2021/04/19 03:21:59;;;;;;;71.15;14.68;;;6.00;1.00;;;;;;5132963;27;20215;-68
2021/04/19 03:24:28;;;;;;;72.00;16.05;;;6.00;1.00;;;;;;5133182;27;20217;-68
2021/04/19 03:26:55;;;;;;;73.45;14.93;;;6.00;1.00;;;;;;5133225;27;20207;-68
2021/04/19 03:29:23;;;;;;;69.68;15.20;;;6.00;1.00;;;;;;5133172;27;20309;-67
2021/04/19 03:31:52;;;;;;;72.55;15.63;;;6.00;1.00;;;;;;5132967;27;20766;-67
2021/04/19 03:34:21;;;;;;;69.35;13.52;;;6.00;1.00;;;;;;5132976;27;20203;-67
2021/04/19 03:36:50;;;;;;;71.75;14.82;;;6.00;1.00;;;;;;5133042;27;20317;-67
2021/04/19 03:39:19;;;;;;;70.68;14.30;;;6.00;1.00;;;;;;5132747;27;20277;-67
2021/04/19 03:41:50;;;;;;;72.22;14.68;;;6.00;1.00;;;;;;5132048;27;20195;-67
2021/04/19 03:44:21;;;;;;;69.47;14.02;;;6.00;1.00;;;;;;5133243;27;20203;-67
2021/04/19 03:46:51;;;;;;;70.18;14.32;;;6.00;1.00;;;;;;5139658;27;20202;-67
2021/04/19 03:49:23;;;;;;;70.70;13.95;;;6.00;1.00;;;;;;5139328;27;20299;-67
2021/04/19 03:51:55;;;;;;;70.25;14.30;;;6.00;1.00;;;;;;5140125;27;20638;-67
2021/04/19 03:54:22;;;;;;;71.78;14.43;;;6.00;1.00;;;;;;5139847;27;20205;-67
2021/04/19 03:56:50;;;;;;;71.53;15.07;;;6.10;1.00;;;;;;5139628;27;20203;-67
2021/04/19 03:59:19;;;;;;;71.57;14.85;;;6.10;1.00;;;;;;5139720;27;20257;-67
2021/04/19 04:01:47;;;;;;;70.28;14.43;;;6.10;1.00;;;;;;5139535;27;20297;-67
2021/04/19 04:04:18;;;;;;;73.00;15.25;;;6.10;1.00;;;;;;5139799;27;20305;-67
2021/04/19 04:06:45;;;;;;;70.93;15.95;;;6.10;1.00;;;;;;5140159;27;20289;-67
2021/04/19 04:09:13;;;;;;;70.80;14.85;;;6.10;1.00;;;;;;5139445;27;20314;-67
2021/04/19 04:11:39;;;;;;;70.05;15.00;;;6.10;1.00;;;;;;5138554;27;20340;-67
2021/04/19 04:14:06;;;;;;;74.38;16.45;;;6.10;1.00;;;;;;5139279;27;20730;-67
2021/04/19 04:16:32;;;;;;;71.97;14.93;;;6.10;1.00;;;;;;5139736;27;20210;-67
2021/04/19 04:18:59;;;;;;;74.47;17.30;;;6.10;1.00;;;;;;5139885;27;20674;-67
2021/04/19 04:21:27;;;;;;;67.82;13.07;;;6.10;1.00;;;;;;5139926;27;20202;-67
2021/04/19 04:23:54;;;;;;;73.28;14.77;;;6.10;1.00;;;;;;5139555;27;20219;-67
2021/04/19 04:26:20;;;;;;;71.18;13.25;;;6.10;1.00;;;;;;5139575;27;20293;-67
2021/04/19 04:28:47;;;;;;;74.07;15.65;;;6.10;1.00;;;;;;5139450;27;20434;-68
2021/04/19 04:31:13;;;;;;;72.25;14.88;;;6.10;1.00;;;;;;5139667;27;20302;-68
2021/04/19 04:33:40;;;;;;;72.65;15.60;;;6.00;1.00;;;;;;5139516;27;20233;-68
2021/04/19 04:36:07;;;;;;;71.60;14.43;;;6.00;1.00;;;;;;5139774;27;20207;-68
2021/04/19 04:38:34;;;;;;;71.80;15.80;;;6.00;1.00;;;;;;5139446;27;20696;-67
2021/04/19 04:41:01;;;;;;;70.25;13.75;;;6.00;1.00;;;;;;5139584;27;20213;-68
2021/04/19 04:43:29;;;;;;;69.95;15.27;;;6.00;1.00;;;;;;5124701;27;20215;-68
2021/04/19 04:46:02;;;;;;;72.28;15.50;;;6.00;1.00;;;;;;5135127;27;20203;-68
2021/04/19 04:48:31;;;;;;;72.07;16.05;;;6.00;1.00;;;;;;5139186;27;20302;-68
2021/04/19 04:51:02;;;;;;;69.68;15.32;;;6.00;1.00;;;;;;5139735;27;20610;-68
2021/04/19 04:53:35;;;;;;;71.03;14.82;;;6.00;1.00;;;;;;5139268;27;20198;-68
2021/04/19 04:56:05;;;;;;;72.85;16.23;;;6.00;1.00;;;;;;5138326;27;20207;-68
2021/04/19 04:58:34;;;;;;;72.30;16.08;;;6.00;1.00;;;;;;5135952;27;20290;-68
2021/04/19 05:01:02;;;;;;;71.05;16.38;;;6.10;1.00;;;;;;5136266;27;20294;-67
2021/04/19 05:03:29;;;;;;;74.45;16.40;;;6.10;1.00;;;;;;5136069;27;20227;-68
2021/04/19 05:05:56;;;;;;;73.13;15.25;;;6.10;1.00;;;;;;5136253;27;20242;-68
2021/04/19 05:08:25;;;;;;;71.95;16.15;;;6.10;1.00;;;;;;5135859;27;20285;-68
2021/04/19 05:10:52;;;;;;;73.90;17.05;;;6.10;1.00;;;;;;5135931;27;20263;-68
2021/04/19 05:13:19;;;;;;;75.63;16.17;;;6.20;1.00;;;;;;5134593;27;20294;-68
2021/04/19 05:15:47;;;;;;;72.88;16.63;;;6.10;1.00;;;;;;5135886;27;20223;-68
2021/04/19 05:18:13;;;;;;;72.43;17.20;;;6.20;1.00;;;;;;5135987;27;20290;-67
2021/04/19 05:20:40;;;;;;;72.13;15.10;;;6.20;1.00;;;;;;5135396;27;20376;-67
2021/04/19 05:23:06;;;;;;;73.20;18.00;;;6.20;1.00;;;;;;5135349;27;20241;-67
2021/04/19 05:25:33;;;;;;;73.10;16.65;;;6.30;1.00;;;;;;5135634;27;20210;-67
2021/04/19 05:28:00;;;;;;;74.18;17.65;;;6.30;1.00;;;;;;5135541;27;20206;-67
2021/04/19 05:30:29;;;;;;;72.22;16.83;;;6.30;1.00;;;;;;5135339;27;20222;-67
2021/04/19 05:32:57;;;;;;;72.15;16.35;;;6.30;1.00;;;;;;5135097;27;20291;-67
2021/04/19 05:35:24;;;;;;;73.88;15.68;;;6.20;1.00;;;;;;5135681;27;20289;-67
2021/04/19 05:37:51;;;;;;;73.22;16.73;;;6.20;1.00;;;;;;5135114;27;20301;-67
2021/04/19 05:40:19;;;;;;;76.20;17.90;;;6.20;1.00;;;;;;5135115;27;20223;-67
2021/04/19 05:42:46;;;;;;;71.80;14.98;;;6.20;1.00;;;;;;5134891;27;20379;-67
2021/04/19 05:45:16;;;;;;;75.95;16.77;;;6.20;1.00;;;;;;5133286;27;20229;-67
2021/04/19 05:47:44;;;;;;;73.63;16.70;;;6.20;1.00;;;;;;5134442;27;20286;-67
2021/04/19 05:50:12;;;;;;;72.13;15.43;;;6.20;1.00;;;;;;5134143;27;20310;-67
2021/04/19 05:52:38;;;;;;;74.28;16.20;;;6.20;1.00;;;;;;5134306;27;20210;-68
2021/04/19 05:55:06;;;;;;;74.80;16.45;;;6.10;1.00;;;;;;5134326;27;20260;-67
2021/04/19 05:57:40;;;;;;;74.45;18.83;;;6.10;1.00;;;;;;5134465;27;20291;-68
2021/04/19 06:00:16;;;;;;;71.90;17.58;;;6.10;1.00;;;;;;5134400;27;20882;-67
2021/04/19 06:02:48;;;;;;;73.55;16.98;;;6.10;1.00;;;;;;5134114;27;20214;-67
2021/04/19 06:05:20;;;;;;;71.15;15.38;;;6.10;1.00;;;;;;5134350;27;20506;-68
2021/04/19 06:07:50;;;;;;;74.30;18.00;;;6.10;1.00;;;;;;5133702;27;20290;-67
2021/04/19 06:10:22;;;;;;;74.47;17.20;;;6.10;1.00;;;;;;5133648;27;20653;-67
2021/04/19 06:12:51;;;;;;;74.85;18.10;;;6.10;1.00;;;;;;5134137;27;20294;-67
2021/04/19 06:15:21;;;;;;;80.80;18.92;;;6.20;1.00;;;;;;5133882;27;20206;-67
2021/04/19 06:17:50;;;;;;;72.28;16.10;;;6.20;1.00;;;;;;5133972;27;20334;-67
2021/04/19 06:20:18;;;;;;;75.60;18.58;;;6.10;1.00;;;;;;5133897;27;20789;-67
2021/04/19 06:22:48;;;;;;;76.10;19.77;;;6.10;1.00;;;;;;5133865;27;20219;-67
2021/04/19 06:25:16;;;;;;;73.93;16.33;;;6.20;1.00;;;;;;5133709;27;20290;-67
2021/04/19 06:27:42;;;;;;;76.30;18.23;;;6.20;1.00;;;;;;5133772;27;20679;-67
2021/04/19 06:30:13;;;;;;;79.63;20.83;;;6.10;1.00;;;;;;5133677;27;20235;-67
2021/04/19 06:32:41;;;;;;;80.90;19.88;;;6.10;1.00;;;;;;5133738;27;20291;-67
2021/04/19 06:35:10;;;;;;;75.30;20.48;;;6.10;1.00;;;;;;5133623;27;20294;-67
2021/04/19 06:37:36;;;;;;;76.97;20.88;;;6.10;1.00;;;;;;5133606;27;20211;-67
2021/04/19 06:40:04;;;;;;;79.63;19.90;;;6.00;1.00;;;;;;5133237;27;20260;-67
2021/04/19 06:42:31;;;;;;;79.45;20.63;;;6.00;1.00;;;;;;5133506;27;20226;-67
2021/04/19 06:45:00;;;;;;;74.45;18.73;;;6.00;1.00;;;;;;5133695;27;20310;-68
2021/04/19 06:47:29;;;;;;;79.90;21.17;;;6.00;1.00;;;;;;5133614;27;20344;-67
2021/04/19 06:49:57;;;;;;;79.78;21.35;;;6.00;1.00;;;;;;5133249;27;20258;-67
2021/04/19 06:52:25;;;;;;;79.20;19.90;;;6.00;1.00;;;;;;5133244;27;20199;-67
2021/04/19 06:54:52;;;;;;;75.43;19.55;;;6.00;1.00;;;;;;5133195;27;20245;-67
2021/04/19 06:57:21;;;;;;;80.40;23.05;;;6.00;1.00;;;;;;5133158;27;20294;-67
2021/04/19 06:59:48;;;;;;;81.97;20.35;;;6.00;1.00;;;;;;5133140;27;20258;-67
2021/04/19 07:02:20;;;;;;;81.35;20.45;;;6.00;1.00;;;;;;5133044;27;20325;-67
2021/04/19 07:04:49;;;;;;;80.03;20.67;;;6.00;1.00;;;;;;5133108;27;20210;-67
2021/04/19 07:07:21;;;;;;;81.20;21.75;;;6.00;1.00;;;;;;5133018;27;20225;-67
2021/04/19 07:09:51;;;;;;;80.97;21.77;;;6.00;1.00;;;;;;5132865;27;20313;-67
2021/04/19 07:12:21;;;;;;;80.85;20.98;;;6.00;1.00;;;;;;5133314;27;20305;-67
2021/04/19 07:14:50;;;;;;;80.35;20.48;;;6.00;1.00;;;;;;5131645;27;20209;-67
2021/04/19 07:17:16;;;;;;;81.18;20.92;;;6.00;1.00;;;;;;5112379;28;20253;-67
2021/04/19 07:19:43;;;;;;;80.00;22.70;;;6.00;1.00;;;;;;5111596;28;20728;-67
2021/04/19 07:22:10;;;;;;;80.22;21.65;;;6.00;1.00;;;;;;5112052;28;20711;-67
2021/04/19 07:24:37;;;;;;;79.57;21.25;;;6.10;1.00;;;;;;5112577;28;20344;-67
2021/04/19 07:27:05;;;;;;;82.40;20.65;;;6.10;1.00;;;;;;5112463;28;20290;-67
2021/04/19 07:29:32;;;;;;;80.47;20.80;;;6.10;1.00;;;;;;5112202;28;20223;-67
2021/04/19 07:31:59;;;;;;;81.43;21.95;;;6.10;1.00;;;;;;5112039;28;20215;-67
2021/04/19 07:34:27;;;;;;;84.20;24.80;;;6.10;1.00;;;;;;5111830;28;20234;-68
2021/04/19 07:36:57;;;;;;;88.10;22.55;;;6.10;1.00;;;;;;5112125;28;20216;-68
2021/04/19 07:39:24;;;;;;;81.05;22.08;;;6.10;1.00;;;;;;5112049;28;20230;-68
2021/04/19 07:41:52;;;;;;;81.80;22.23;;;6.20;1.00;;;;;;5111809;28;20294;-68
2021/04/19 07:44:50;;;;;;;81.50;22.00;;;6.20;1.00;;;;;;5112020;28;20272;-68
2021/04/19 07:47:22;;;;;;;83.10;21.10;;;6.30;1.00;;;;;;5029064;28;20752;-68
2021/04/19 07:50:10;;;;;;;81.53;22.70;;;6.30;1.00;;;;;;5096493;28;20272;-68
2021/04/19 07:52:49;;;;;;;89.65;24.58;;;6.40;1.00;;;;;;5112172;28;20758;-68
2021/04/19 07:55:18;;;;;;;86.80;24.45;;;6.30;1.00;;;;;;5111769;28;20217;-68
2021/04/19 07:57:46;;;;;;;99.10;31.33;;;6.40;1.00;;;;;;5111933;28;20695;-68
2021/04/19 08:00:25;;;;;;;94.30;28.63;;;6.50;1.00;;;;;;5111624;28;20223;-68
2021/04/19 08:02:58;;;;;;;89.47;25.38;;;6.60;1.00;;;;;;5111862;28;20283;-68
2021/04/19 08:05:36;;;;;;;90.25;27.48;;;6.70;1.00;;;;;;5111744;28;20206;-68
2021/04/19 08:08:03;;;;;;;84.07;24.92;;;6.70;1.00;;;;;;5112056;28;20241;-69
2021/04/19 08:10:30;;;;;;;84.32;24.95;;;6.80;1.00;;;;;;5111882;28;20263;-68
2021/04/19 08:13:06;;;;;;;90.03;28.08;;;6.80;1.00;;;;;;5111853;28;20289;-68
2021/04/19 08:15:34;;;;;;;91.57;28.05;;;6.90;1.00;;;;;;5131095;28;20199;-68
2021/04/19 08:18:02;;;;;;;87.47;27.00;;;7.00;1.00;;;;;;5132011;27;20205;-68
2021/04/19 08:20:29;;;;;;;85.80;26.60;;;7.20;1.00;;;;;;5132359;27;20250;-68
2021/04/19 08:23:05;;;;;;;87.53;26.48;;;7.30;1.00;;;;;;5132114;27;20227;-68
2021/04/19 08:25:36;;;;;;;87.90;26.98;;;7.40;1.00;;;;;;5132827;27;20545;-68
2021/04/19 08:28:04;;;;;;;85.85;26.98;;;7.60;1.00;;;;;;5132200;27;20290;-68
2021/04/19 08:30:31;;;;;;;85.63;25.70;;;7.60;1.00;;;;;;5132344;27;20276;-68
2021/04/19 08:32:59;;;;;;;86.28;25.77;;;7.70;1.00;;;;;;5135034;27;20272;-67
2021/04/19 08:35:26;;;;;;;82.63;24.73;;;7.80;1.00;;;;;;5135856;27;20321;-68
2021/04/19 08:37:53;;;;;;;86.18;24.50;;;7.80;1.00;;;;;;5135903;27;20330;-66
2021/04/19 08:40:20;;;;;;;87.22;23.75;;;7.90;1.00;;;;;;5136049;27;20313;-67
2021/04/19 08:42:47;;;;;;;85.57;24.05;;;7.90;1.00;;;;;;5135723;27;20229;-68
2021/04/19 08:45:15;;;;;;;82.90;23.58;;;7.90;1.00;;;;;;5135927;27;20376;-69
2021/04/19 08:47:41;;;;;;;81.72;24.08;;;8.00;1.00;;;;;;5135805;27;20291;-68
2021/04/19 08:50:11;;;;;;;78.30;21.67;;;8.00;1.00;;;;;;5135761;27;20229;-66
2021/04/19 08:52:38;;;;;;;79.35;22.58;;;7.90;1.00;;;;;;5135612;27;20205;-67
2021/04/19 08:55:08;;;;;;;82.23;22.83;;;7.90;1.00;;;;;;5135747;27;20249;-67
2021/04/19 08:57:34;;;;;;;78.68;21.45;;;7.90;1.00;;;;;;5135517;27;20444;-67
2021/04/19 09:00:01;;;;;;;85.88;24.48;;;7.80;1.00;;;;;;5135676;27;20650;-67
2021/04/19 09:02:27;;;;;;;78.35;21.33;;;7.80;1.00;;;;;;5135291;27;20221;-68
2021/04/19 09:05:11;;;;;;;85.20;23.60;;;7.80;1.00;;;;;;5135348;27;20280;-67
2021/04/19 09:07:40;;;;;;;82.05;22.33;;;7.80;1.00;;;;;;5133976;27;20488;-67
2021/04/19 09:10:08;;;;;;;84.40;26.15;;;7.80;1.00;;;;;;5132792;27;20230;-68
2021/04/19 09:12:35;;;;;;;91.43;26.23;;;7.90;1.00;;;;;;5135350;27;20234;-68
2021/04/19 09:15:24;;;;;;;84.90;23.92;;;7.90;1.00;;;;;;5135461;27;20244;-68
2021/04/19 09:18:11;;;;;;;83.47;25.30;;;8.00;1.00;;;;;;5135396;27;20212;-68
2021/04/19 09:20:51;;;;;;;82.85;24.35;;;8.10;1.00;;;;;;5129969;27;20371;-68
2021/04/19 09:23:25;;;;;;;86.97;27.17;;;8.10;1.00;;;;;;5135271;27;20669;-68
2021/04/19 09:25:53;;;;;;;85.00;24.40;;;8.20;1.00;;;;;;5134570;27;20283;-69
2021/04/19 09:28:59;;;;;;;83.93;26.30;;;8.30;1.00;;;;;;5134918;27;20679;-68
2021/04/19 09:32:01;;;;;;;85.60;26.40;;;8.30;1.00;;;;;;5135139;27;20814;-68
2021/04/19 09:34:38;;;;;;;89.57;24.60;;;8.40;1.00;;;;;;5134735;27;20525;-69
2021/04/19 09:37:06;;;;;;;81.20;24.75;;;8.50;1.00;;;;;;5134542;27;20566;-69
2021/04/19 09:40:02;;;;;;;84.93;25.87;;;8.60;1.00;;;;;;5134683;27;20273;-69
2021/04/19 09:43:04;;;;;;;86.75;26.27;;;8.70;1.00;;;;;;5134311;27;20481;-67
2021/04/19 09:45:55;;;;;;;85.33;25.00;;;8.80;1.00;;;;;;5134471;27;20341;-68
2021/04/19 09:48:34;;;;;;;85.40;25.43;;;8.70;1.00;;;;;;5134583;27;20532;-68
2021/04/19 09:51:04;;;;;;;86.90;26.27;;;8.70;1.00;;;;;;5134496;27;20472;-68
2021/04/19 09:53:32;;;;;;;87.27;26.53;;;8.70;1.00;;;;;;5134267;27;20446;-68
2021/04/19 09:55:58;;;;;;;85.65;25.70;;;8.70;1.00;;;;;;5133155;27;20497;-68
2021/04/19 09:58:25;;;;;;;86.03;24.30;;;8.80;1.00;;;;;;5134133;27;20730;-68
2021/04/19 10:00:55;;;;;;;87.50;25.33;;;8.80;1.00;;;;;;5134456;27;20545;-68
2021/04/19 10:03:22;;;;;;;84.60;24.70;;;8.90;1.00;;;;;;5134277;27;20571;-68
2021/04/19 10:05:51;;;;;;;85.57;25.17;;;8.90;1.00;;;;;;5134222;27;20516;-68
2021/04/19 10:08:18;;;;;;;81.70;24.33;;;9.00;1.00;;;;;;5134141;27;20439;-68
2021/04/19 10:10:51;;;;;;;82.80;23.80;;;9.10;1.00;;;;;;5134015;27;20607;-68
2021/04/19 10:13:26;;;;;;;80.80;22.83;;;9.10;1.00;;;;;;5134123;27;20443;-68
2021/04/19 10:16:05;;;;;;;82.43;23.40;;;9.30;1.00;;;;;;5134045;27;20446;-68
2021/04/19 10:18:33;;;;;;;81.73;24.10;;;9.30;1.00;;;;;;5133773;27;20998;-68
2021/04/19 10:21:00;;;;;;;78.87;23.03;;;9.30;1.00;;;;;;5133665;27;20447;-68
2021/04/19 10:23:35;;;;;;;78.07;22.00;;;9.30;1.00;;;;;;5133992;27;20570;-68
2021/04/19 10:26:02;;;;;;;87.47;25.30;;;9.40;1.00;;;;;;5134268;27;20884;-68
2021/04/19 10:28:32;;;;;;;80.73;23.50;;;9.40;1.00;;;;;;5124428;27;20460;-68
2021/04/19 10:31:13;;;;;;;80.73;23.57;;;9.50;1.00;;;;;;5124508;27;20977;-68
2021/04/19 10:33:40;;;;;;;79.97;23.27;;;9.60;1.00;;;;;;5133556;27;20447;-68
2021/04/19 10:36:18;;;;;;;79.57;20.53;;;9.60;1.00;;;;;;5133926;27;20450;-68
2021/04/19 10:38:46;;;;;;;81.70;22.40;;;9.70;1.00;;;;;;5133350;27;20512;-68
2021/04/19 10:41:15;;;;;;;81.43;23.30;;;9.70;1.00;;;;;;5133871;27;20481;-68
2021/04/19 10:43:42;;;;;;;77.80;19.63;;;9.70;1.00;;;;;;5133803;27;20840;-68
2021/04/19 10:46:27;;;;;;;79.73;22.67;;;9.60;1.00;;;;;;5133435;27;20931;-68
2021/04/19 10:48:56;;;;;;;79.60;22.50;;;9.50;1.00;;;;;;5133621;27;20459;-68
2021/04/19 10:51:24;;;;;;;78.90;21.60;;;9.60;1.00;;;;;;5133519;27;20443;-68
2021/04/19 10:53:52;;;;;;;80.80;21.20;;;9.50;1.00;;;;;;5133293;27;20450;-68
2021/04/19 10:56:24;;;;;;;79.50;20.00;;;9.40;1.00;;;;;;5132863;27;20917;-68
2021/04/19 10:58:53;;;;;;;81.27;23.00;;;9.30;1.00;;;;;;5133346;27;20528;-68
2021/04/19 11:01:25;;;;;;;80.90;22.57;;;9.30;1.00;;;;;;5132399;27;20443;-68
2021/04/19 11:03:53;;;;;;;83.23;24.77;;;9.40;1.00;;;;;;5133022;27;20483;-68
2021/04/19 11:06:19;;;;;;;80.07;21.90;;;9.50;1.00;;;;;;5133101;27;20444;-68
2021/04/19 11:08:50;;;;;;;82.63;24.03;;;9.50;1.00;;;;;;5132827;27;20532;-68
2021/04/19 11:11:29;;;;;;;92.13;25.77;;;9.40;1.00;;;;;;5133217;27;21037;-68
2021/04/19 11:14:11;;;;;;;93.20;26.53;;;9.40;1.00;;;;;;5132887;27;20584;-68
2021/04/19 11:16:48;;;;;;;80.20;23.47;;;9.30;1.00;;;;;;5132938;27;20499;-68
2021/04/19 11:19:28;;;;;;;82.27;24.57;;;9.40;1.00;;;;;;5132641;27;20596;-68
2021/04/19 11:21:55;;;;;;;93.50;28.93;;;9.50;1.00;;;;;;5132973;27;20523;-68
2021/04/19 11:24:22;;;;;;;90.70;28.47;;;9.60;1.00;;;;;;5132794;27;20571;-68
2021/04/19 11:26:49;;;;;;;88.00;28.47;;;9.60;1.00;;;;;;5132759;27;20538;-68
2021/04/19 11:29:36;;;;;;;92.30;27.30;;;9.70;1.00;;;;;;5132532;27;20983;-68
2021/04/19 11:32:03;;;;;;;87.87;26.77;;;9.70;1.00;;;;;;5131626;27;20546;-68
2021/04/19 11:34:36;;;;;;;87.27;28.13;;;9.70;1.00;;;;;;5132600;27;20876;-68
2021/04/19 11:37:03;;;;;;;86.47;27.17;;;9.70;1.00;;;;;;5132610;27;20548;-68
2021/04/19 11:39:37;;;;;;;86.20;27.73;;;9.70;1.00;;;;;;5132599;27;20558;-68
2021/04/19 11:42:06;;;;;;;92.40;30.20;;;9.90;1.00;;;;;;5132522;27;20447;-68
2021/04/19 11:44:45;;;;;;;86.10;25.60;;;10.00;1.00;;;;;;5132389;27;20582;-68
2021/04/19 11:47:14;;;;;;;86.87;27.60;;;10.00;1.00;;;;;;5132403;27;20444;-68
2021/04/19 11:49:41;;;;;;;81.83;24.73;;;10.00;1.00;;;;;;5132416;27;20996;-68
2021/04/19 11:52:07;;;;;;;90.33;26.53;;;10.00;1.00;;;;;;5132351;27;20446;-68
2021/04/19 11:54:34;;;;;;;86.60;25.97;;;10.00;1.00;;;;;;5132778;27;20446;-68
2021/04/19 11:57:00;;;;;;;83.33;25.07;;;10.00;1.00;;;;;;5132709;27;20995;-68
2021/04/19 11:59:27;;;;;;;82.87;26.33;;;9.90;1.00;;;;;;5132212;27;21044;-68
2021/04/19 12:01:54;;;;;;;89.60;28.23;;;9.90;1.00;;;;;;5132412;27;20535;-68
2021/04/19 12:04:20;;;;;;;83.97;25.43;;;9.90;1.00;;;;;;5131241;27;21065;-68
2021/04/19 12:06:46;;;;;;;89.80;28.27;;;9.90;1.00;;;;;;5135327;27;20534;-68
2021/04/19 12:09:12;;;;;;;85.23;26.40;;;10.00;1.00;;;;;;5136294;27;20550;-68
2021/04/19 12:11:39;;;;;;;82.77;25.47;;;10.00;1.00;;;;;;5136469;27;20479;-68
2021/04/19 12:14:05;;;;;;;78.30;22.60;;;10.00;1.00;;;;;;5136707;27;20468;-67
2021/04/19 12:16:32;;;;;;;86.33;27.10;;;10.10;1.00;;;;;;5136560;27;20526;-68
2021/04/19 12:18:59;;;;;;;86.40;27.80;;;10.10;1.00;;;;;;5136536;27;20822;-68
2021/04/19 12:21:26;;;;;;;94.20;28.50;;;10.00;1.00;;;;;;5136305;27;20551;-68
2021/04/19 12:23:52;;;;;;;86.97;28.87;;;9.80;1.00;;;;;;5136326;27;20893;-68
2021/04/19 12:26:18;;;;;;;88.17;28.10;;;9.70;1.00;;;;;;5136405;27;20445;-68
2021/04/19 12:28:45;;;;;;;81.93;24.60;;;9.70;1.00;;;;;;5136172;27;20475;-68
2021/04/19 12:31:11;;;;;;;84.37;25.17;;;9.90;1.00;;;;;;5136272;27;20438;-67
2021/04/19 12:33:38;;;;;;;79.03;22.53;;;10.20;1.00;;;;;;5136263;27;20533;-67
2021/04/19 12:36:06;;;;;;;81.40;23.67;;;10.50;1.00;;;;;;5135487;27;20560;-68
2021/04/19 12:38:32;;;;;;;81.97;25.50;;;10.80;1.00;;;;;;5135549;27;20994;-67
2021/04/19 12:40:58;;;;;;;85.43;28.10;;;11.00;1.00;;;;;;5136080;27;20497;-67
2021/04/19 12:43:25;;;;;;;82.80;26.67;;;11.20;1.00;;;;;;5135785;27;20480;-67
2021/04/19 12:45:51;;;;;;;83.27;26.17;;;11.40;1.00;;;;;;5135691;27;20553;-67
2021/04/19 12:48:17;;;;;;;81.40;25.23;;;11.50;1.00;;;;;;5135656;27;20452;-68
2021/04/19 12:50:45;;;;;;;85.33;25.77;;;11.60;1.00;;;;;;5136175;27;20468;-68
2021/04/19 12:53:11;;;;;;;80.00;25.30;;;11.80;1.00;;;;;;5135423;27;21015;-68
2021/04/19 12:55:41;;;;;;;76.23;22.03;;;11.80;1.00;;;;;;5135785;27;20452;-68
2021/04/19 12:58:08;;;;;;;80.27;25.27;;;12.00;1.00;;;;;;5135104;27;20534;-67